Time;durP1;ratioP1;P1;durP2;ratioP2;P2;SDS_P1;SDS_P2;PMS_P1;PMS_P2;Temp;Humidity;BMP_temperature;BMP_pressure;BME280_temperature;BME280_humidity;BME280_pressure;Samples;Min_cycle;Max_cycle;Signal;HPM_P1;HPM_P2
2023/01/03 00:00:05;;;;;;;;;;;23.20;35.70;;;;;;462679;257;1832;-44
2023/01/03 00:02:07;;;;;;;;;;;23.20;35.70;;;;;;462416;257;1857;-43
2023/01/03 00:04:08;;;;;;;;;;;23.20;35.70;;;;;;462608;257;1831;-43
2023/01/03 00:06:09;;;;;;;;;;;23.20;35.70;;;;;;462436;257;2126;-44
2023/01/03 00:08:11;;;;;;;;;;;23.20;35.60;;;;;;462528;257;1950;-43
2023/01/03 00:10:12;;;;;;;;;;;23.30;35.60;;;;;;462588;257;2175;-44
2023/01/03 00:12:25;;;;;;;;;;;23.30;35.60;;;;;;462426;257;2119;-44
2023/01/03 00:14:27;;;;;;;;;;;23.30;35.60;;;;;;462621;257;1977;-44
2023/01/03 00:16:28;;;;;;;;;;;23.30;35.60;;;;;;462624;257;2133;-44
2023/01/03 00:18:29;;;;;;;;;;;23.30;35.60;;;;;;462668;257;2219;-43
2023/01/03 00:20:31;;;;;;;;;;;23.30;35.60;;;;;;462703;257;1740;-43
2023/01/03 00:22:32;;;;;;;;;;;23.30;35.50;;;;;;462828;257;1955;-44
2023/01/03 00:24:33;;;;;;;;;;;23.30;35.50;;;;;;462839;257;1685;-44
2023/01/03 00:26:35;;;;;;;;;;;23.30;35.50;;;;;;462836;257;1739;-44
2023/01/03 00:28:36;;;;;;;;;;;23.40;35.50;;;;;;462821;257;1901;-43
2023/01/03 00:30:37;;;;;;;;;;;23.40;35.50;;;;;;462810;257;1949;-44
2023/01/03 00:32:39;;;;;;;;;;;23.40;35.50;;;;;;462821;257;2143;-44
2023/01/03 00:34:40;;;;;;;;;;;23.40;35.50;;;;;;462889;257;1974;-44
2023/01/03 00:36:41;;;;;;;;;;;23.40;35.50;;;;;;462794;257;1694;-44
2023/01/03 00:38:43;;;;;;;;;;;23.40;35.50;;;;;;462755;257;2256;-44
2023/01/03 00:40:44;;;;;;;;;;;23.40;35.40;;;;;;462560;257;1921;-44
2023/01/03 00:45:04;;;;;;;;;;;23.40;35.40;;;;;;462606;257;1703;-44
2023/01/03 00:47:06;;;;;;;;;;;23.50;35.40;;;;;;462482;257;1923;-44
2023/01/03 00:49:07;;;;;;;;;;;23.50;35.40;;;;;;462558;257;1713;-44
2023/01/03 00:51:08;;;;;;;;;;;23.50;35.40;;;;;;462365;257;1994;-43
2023/01/03 00:53:10;;;;;;;;;;;23.50;35.50;;;;;;462495;257;2374;-44
2023/01/03 00:55:11;;;;;;;;;;;23.50;35.40;;;;;;462543;257;1970;-43
2023/01/03 00:57:12;;;;;;;;;;;23.50;35.40;;;;;;462445;257;1751;-44
2023/01/03 00:59:14;;;;;;;;;;;23.50;35.50;;;;;;462556;257;2179;-44
2023/01/03 01:01:15;;;;;;;;;;;23.50;35.50;;;;;;462537;257;1877;-43
2023/01/03 01:03:16;;;;;;;;;;;23.30;35.70;;;;;;462701;257;1706;-43
2023/01/03 01:05:18;;;;;;;;;;;23.10;36.10;;;;;;462828;257;1821;-43
2023/01/03 01:07:19;;;;;;;;;;;22.90;36.40;;;;;;462530;257;1941;-44
2023/01/03 01:09:20;;;;;;;;;;;22.70;36.70;;;;;;462695;257;1950;-43
2023/01/03 01:11:22;;;;;;;;;;;22.50;37.10;;;;;;462636;257;1362;-43
2023/01/03 01:13:23;;;;;;;;;;;22.40;37.30;;;;;;462742;257;1887;-44
2023/01/03 01:15:24;;;;;;;;;;;22.30;37.50;;;;;;462788;257;2008;-44
2023/01/03 01:17:27;;;;;;;;;;;22.20;37.70;;;;;;462559;257;2187;-43
2023/01/03 01:19:28;;;;;;;;;;;22.20;37.80;;;;;;462605;257;2013;-44
2023/01/03 01:21:29;;;;;;;;;;;22.10;38.00;;;;;;462433;257;2080;-43
2023/01/03 01:23:30;;;;;;;;;;;22.00;38.00;;;;;;462594;257;1927;-44
2023/01/03 01:25:32;;;;;;;;;;;22.00;38.00;;;;;;462755;257;1783;-43
2023/01/03 01:27:33;;;;;;;;;;;22.00;38.00;;;;;;462791;257;1689;-44
2023/01/03 01:29:34;;;;;;;;;;;22.00;38.00;;;;;;462846;257;1787;-43
2023/01/03 01:31:36;;;;;;;;;;;22.10;38.00;;;;;;462774;257;2220;-43
2023/01/03 01:33:37;;;;;;;;;;;22.00;38.10;;;;;;462857;257;1715;-44
2023/01/03 01:35:38;;;;;;;;;;;21.90;38.20;;;;;;462852;257;1970;-43
2023/01/03 01:37:40;;;;;;;;;;;21.90;38.20;;;;;;462846;257;2195;-44
2023/01/03 01:39:41;;;;;;;;;;;21.90;38.40;;;;;;463020;257;1744;-44
2023/01/03 01:46:20;;;;;;;;;;;21.80;38.40;;;;;;462796;257;1742;-43
2023/01/03 01:48:22;;;;;;;;;;;21.80;38.50;;;;;;462860;257;1759;-43
2023/01/03 01:50:23;;;;;;;;;;;21.70;38.60;;;;;;463108;257;1753;-44
2023/01/03 01:52:24;;;;;;;;;;;21.70;38.60;;;;;;462907;257;1690;-43
2023/01/03 01:54:26;;;;;;;;;;;21.70;38.70;;;;;;462865;257;1716;-43
2023/01/03 01:56:27;;;;;;;;;;;21.60;38.70;;;;;;462801;257;1624;-43
2023/01/03 01:58:28;;;;;;;;;;;21.60;38.80;;;;;;462864;257;2172;-43
2023/01/03 02:00:30;;;;;;;;;;;21.60;38.80;;;;;;462787;257;1789;-43
2023/01/03 02:02:31;;;;;;;;;;;21.70;38.80;;;;;;462804;257;1794;-43
2023/01/03 02:04:32;;;;;;;;;;;21.70;38.80;;;;;;462853;257;2265;-43
2023/01/03 02:06:34;;;;;;;;;;;21.70;38.60;;;;;;462807;257;2185;-44
2023/01/03 02:08:35;;;;;;;;;;;21.70;38.60;;;;;;462946;257;2203;-43
2023/01/03 02:10:36;;;;;;;;;;;21.70;38.70;;;;;;462899;257;1701;-43
2023/01/03 02:14:57;;;;;;;;;;;21.70;38.60;;;;;;463010;257;1970;-43
2023/01/03 02:16:58;;;;;;;;;;;21.60;38.80;;;;;;462914;257;1682;-43
2023/01/03 02:19:00;;;;;;;;;;;21.60;38.70;;;;;;462901;257;2231;-44
2023/01/03 02:21:01;;;;;;;;;;;21.60;38.80;;;;;;462786;257;1976;-44
2023/01/03 02:23:02;;;;;;;;;;;21.60;38.80;;;;;;462768;257;1761;-44
2023/01/03 02:25:04;;;;;;;;;;;21.50;38.80;;;;;;462768;257;1686;-43
2023/01/03 02:27:05;;;;;;;;;;;21.50;38.90;;;;;;462696;257;1705;-44
2023/01/03 02:29:06;;;;;;;;;;;21.50;38.90;;;;;;462760;257;1692;-44
2023/01/03 02:31:08;;;;;;;;;;;21.50;38.90;;;;;;462767;257;2191;-44
2023/01/03 02:33:09;;;;;;;;;;;21.50;39.00;;;;;;462668;257;1729;-44
2023/01/03 02:35:10;;;;;;;;;;;21.40;39.00;;;;;;462710;257;1796;-43
2023/01/03 02:37:12;;;;;;;;;;;21.40;39.00;;;;;;462636;257;2127;-43
2023/01/03 02:39:13;;;;;;;;;;;21.40;39.00;;;;;;462748;257;2179;-43
2023/01/03 02:41:15;;;;;;;;;;;21.40;39.00;;;;;;462628;257;1687;-44
2023/01/03 02:43:16;;;;;;;;;;;21.50;39.00;;;;;;463009;257;1891;-44
2023/01/03 02:45:17;;;;;;;;;;;21.50;38.90;;;;;;462726;257;1899;-43
2023/01/03 02:47:18;;;;;;;;;;;21.50;38.80;;;;;;462655;257;1742;-43
2023/01/03 02:49:20;;;;;;;;;;;21.50;38.80;;;;;;462777;257;1854;-43
2023/01/03 02:51:21;;;;;;;;;;;21.50;38.90;;;;;;462583;257;1737;-43
2023/01/03 02:53:22;;;;;;;;;;;21.50;39.00;;;;;;462684;257;1945;-43
2023/01/03 02:55:24;;;;;;;;;;;21.50;38.80;;;;;;462735;257;2170;-44
2023/01/03 02:57:25;;;;;;;;;;;21.50;38.80;;;;;;462588;257;1750;-43
2023/01/03 02:59:26;;;;;;;;;;;21.50;38.90;;;;;;462640;257;2211;-43
2023/01/03 03:01:28;;;;;;;;;;;21.50;38.90;;;;;;462485;257;2148;-43
2023/01/03 03:03:29;;;;;;;;;;;21.40;38.90;;;;;;462598;257;1743;-43
2023/01/03 03:05:30;;;;;;;;;;;21.40;39.00;;;;;;462634;257;1793;-43
2023/01/03 03:07:32;;;;;;;;;;;21.40;39.00;;;;;;462496;257;1741;-43
2023/01/03 03:13:11;;;;;;;;;;;21.40;39.10;;;;;;462672;257;1939;-43
2023/01/03 03:13:54;;;;;;;;;;;21.40;39.10;;;;;;462792;257;1978;-43
2023/01/03 03:15:55;;;;;;;;;;;21.30;39.10;;;;;;462551;257;1754;-43
2023/01/03 03:17:56;;;;;;;;;;;21.30;39.10;;;;;;462655;257;1934;-44
2023/01/03 03:24:51;;;;;;;;;;;21.40;39.00;;;;;;462692;257;2070;-43
2023/01/03 03:26:52;;;;;;;;;;;21.50;38.90;;;;;;462531;257;2171;-43
2023/01/03 03:28:53;;;;;;;;;;;21.50;39.00;;;;;;462586;257;2128;-43
2023/01/03 03:30:55;;;;;;;;;;;21.40;38.90;;;;;;462752;257;1967;-43
2023/01/03 03:32:56;;;;;;;;;;;21.40;39.00;;;;;;462459;257;2062;-43
2023/01/03 03:34:57;;;;;;;;;;;21.40;39.00;;;;;;462638;257;1978;-43
2023/01/03 03:36:59;;;;;;;;;;;21.40;39.00;;;;;;462495;257;2029;-43
2023/01/03 03:39:00;;;;;;;;;;;21.40;39.00;;;;;;462707;257;2232;-43
2023/01/03 03:45:40;;;;;;;;;;;21.40;39.10;;;;;;462715;257;1728;-44
2023/01/03 03:47:41;;;;;;;;;;;21.30;39.10;;;;;;462871;257;2103;-44
2023/01/03 03:49:43;;;;;;;;;;;21.30;39.10;;;;;;462914;257;2172;-43
2023/01/03 03:51:44;;;;;;;;;;;21.30;39.20;;;;;;462953;257;2090;-43
2023/01/03 03:53:45;;;;;;;;;;;21.30;39.20;;;;;;462882;257;1725;-43
2023/01/03 03:55:47;;;;;;;;;;;21.30;39.10;;;;;;462860;257;1928;-44
2023/01/03 03:57:48;;;;;;;;;;;21.40;39.10;;;;;;463030;257;1872;-43
2023/01/03 03:59:49;;;;;;;;;;;21.40;39.10;;;;;;462842;257;2218;-43
2023/01/03 04:01:51;;;;;;;;;;;21.40;39.00;;;;;;462722;257;1720;-43
2023/01/03 04:03:52;;;;;;;;;;;21.40;39.00;;;;;;462796;257;1729;-43
2023/01/03 04:05:53;;;;;;;;;;;21.40;39.10;;;;;;462668;257;1642;-43
2023/01/03 04:07:55;;;;;;;;;;;21.30;39.10;;;;;;462584;257;1936;-43
2023/01/03 04:09:56;;;;;;;;;;;21.30;39.00;;;;;;462664;257;1730;-43
2023/01/03 04:11:57;;;;;;;;;;;21.30;39.00;;;;;;462736;257;1736;-43
2023/01/03 04:13:59;;;;;;;;;;;21.30;39.00;;;;;;462705;257;1820;-43
2023/01/03 04:16:00;;;;;;;;;;;21.30;39.10;;;;;;462719;257;1843;-44
2023/01/03 04:18:01;;;;;;;;;;;21.30;39.10;;;;;;462586;257;1722;-44
2023/01/03 04:20:03;;;;;;;;;;;21.30;39.10;;;;;;462579;257;2230;-44
2023/01/03 04:22:04;;;;;;;;;;;21.30;39.10;;;;;;462627;257;1788;-43
2023/01/03 04:24:05;;;;;;;;;;;21.30;39.20;;;;;;462592;257;1702;-43
2023/01/03 04:26:07;;;;;;;;;;;21.30;39.20;;;;;;462648;257;1839;-44
2023/01/03 04:28:08;;;;;;;;;;;21.30;39.10;;;;;;462610;257;1896;-43
2023/01/03 04:30:10;;;;;;;;;;;21.30;39.10;;;;;;462625;257;2012;-43
2023/01/03 04:32:11;;;;;;;;;;;21.40;39.00;;;;;;462610;257;1735;-43
2023/01/03 04:34:12;;;;;;;;;;;21.40;39.00;;;;;;462671;257;1851;-43
2023/01/03 04:36:13;;;;;;;;;;;21.30;39.00;;;;;;462826;257;2420;-44
2023/01/03 04:38:15;;;;;;;;;;;21.40;39.00;;;;;;462761;257;1754;-44
2023/01/03 04:40:16;;;;;;;;;;;21.40;39.10;;;;;;462721;257;2167;-43
2023/01/03 04:44:36;;;;;;;;;;;21.30;39.00;;;;;;462790;257;1735;-43
2023/01/03 04:46:38;;;;;;;;;;;21.30;39.00;;;;;;462694;257;2098;-43
2023/01/03 04:48:39;;;;;;;;;;;21.30;38.90;;;;;;462673;257;2608;-44
2023/01/03 04:50:40;;;;;;;;;;;21.30;39.00;;;;;;462676;257;1745;-43
2023/01/03 04:52:42;;;;;;;;;;;21.30;39.00;;;;;;462745;257;1859;-43
2023/01/03 04:54:43;;;;;;;;;;;21.30;39.10;;;;;;462644;257;1690;-44
2023/01/03 04:56:44;;;;;;;;;;;21.30;39.20;;;;;;462745;257;2210;-43
2023/01/03 04:58:46;;;;;;;;;;;21.20;39.10;;;;;;462794;257;2235;-43
2023/01/03 05:00:47;;;;;;;;;;;21.30;39.20;;;;;;462970;257;2528;-43
2023/01/03 05:02:48;;;;;;;;;;;21.30;39.10;;;;;;462982;257;2202;-43
2023/01/03 05:04:50;;;;;;;;;;;21.30;39.10;;;;;;462823;257;1698;-43
2023/01/03 05:06:51;;;;;;;;;;;21.30;39.00;;;;;;462707;257;1637;-44
2023/01/03 05:08:52;;;;;;;;;;;21.30;39.00;;;;;;462876;257;1852;-44
2023/01/03 05:10:54;;;;;;;;;;;21.30;39.00;;;;;;462628;257;1725;-43
2023/01/03 05:12:59;;;;;;;;;;;21.30;39.00;;;;;;462705;257;1878;-43
2023/01/03 05:15:00;;;;;;;;;;;21.30;39.10;;;;;;462824;257;1734;-43
2023/01/03 05:17:01;;;;;;;;;;;21.30;39.00;;;;;;462658;257;1798;-43
2023/01/03 05:19:03;;;;;;;;;;;21.40;39.10;;;;;;462766;257;2211;-43
2023/01/03 05:25:51;;;;;;;;;;;21.30;39.10;;;;;;462714;257;1783;-43
2023/01/03 05:27:53;;;;;;;;;;;21.30;39.20;;;;;;462832;257;1944;-43
2023/01/03 05:29:54;;;;;;;;;;;21.20;39.20;;;;;;462761;257;1741;-43
2023/01/03 05:31:55;;;;;;;;;;;21.30;39.20;;;;;;462696;257;1682;-43
2023/01/03 05:33:57;;;;;;;;;;;21.30;39.20;;;;;;462692;257;1727;-44
2023/01/03 05:35:58;;;;;;;;;;;21.20;39.20;;;;;;462859;257;1692;-44
2023/01/03 05:37:59;;;;;;;;;;;21.20;39.20;;;;;;462804;257;1700;-43
2023/01/03 05:40:01;;;;;;;;;;;21.30;39.10;;;;;;462742;257;2195;-43
2023/01/03 05:42:02;;;;;;;;;;;21.30;39.10;;;;;;462880;257;1750;-43
2023/01/03 05:44:03;;;;;;;;;;;21.30;39.00;;;;;;462909;257;1717;-43
2023/01/03 05:46:05;;;;;;;;;;;21.30;39.00;;;;;;462780;257;1705;-43
2023/01/03 05:48:06;;;;;;;;;;;21.30;39.00;;;;;;462918;257;2000;-44
2023/01/03 05:50:07;;;;;;;;;;;21.30;39.10;;;;;;462762;257;2050;-43
2023/01/03 05:52:09;;;;;;;;;;;21.30;39.10;;;;;;462668;257;1992;-43
2023/01/03 05:54:10;;;;;;;;;;;21.30;39.10;;;;;;462713;257;1755;-43
2023/01/03 05:56:11;;;;;;;;;;;21.30;39.20;;;;;;462703;257;1918;-44
2023/01/03 05:58:13;;;;;;;;;;;21.30;39.10;;;;;;462751;257;2088;-44
2023/01/03 06:00:14;;;;;;;;;;;21.30;39.10;;;;;;462496;257;2207;-43
2023/01/03 06:02:15;;;;;;;;;;;21.30;39.10;;;;;;462574;257;2055;-44
2023/01/03 06:04:17;;;;;;;;;;;21.30;39.20;;;;;;462669;257;1979;-43
2023/01/03 06:06:18;;;;;;;;;;;21.20;39.20;;;;;;462627;257;1961;-43
2023/01/03 06:08:19;;;;;;;;;;;21.20;39.30;;;;;;462637;257;1697;-44
2023/01/03 06:10:21;;;;;;;;;;;21.20;39.30;;;;;;462787;257;2272;-44
2023/01/03 06:12:22;;;;;;;;;;;21.20;39.20;;;;;;462676;257;2478;-43
2023/01/03 06:14:23;;;;;;;;;;;21.20;39.30;;;;;;462679;257;1753;-43
2023/01/03 06:18:44;;;;;;;;;;;21.20;39.40;;;;;;462757;257;2090;-43
2023/01/03 06:20:45;;;;;;;;;;;21.30;39.30;;;;;;462588;257;2207;-43
2023/01/03 06:22:46;;;;;;;;;;;21.20;39.20;;;;;;462623;257;2062;-44
2023/01/03 06:24:48;;;;;;;;;;;21.30;39.20;;;;;;462699;257;1727;-43
2023/01/03 06:26:49;;;;;;;;;;;21.20;39.10;;;;;;462518;257;1988;-43
2023/01/03 06:28:50;;;;;;;;;;;21.30;39.10;;;;;;462619;257;1726;-43
2023/01/03 06:30:52;;;;;;;;;;;21.30;39.10;;;;;;462672;257;2241;-43
2023/01/03 06:32:53;;;;;;;;;;;21.30;39.10;;;;;;462618;257;2164;-43
2023/01/03 06:34:54;;;;;;;;;;;21.30;39.10;;;;;;462846;257;1803;-43
2023/01/03 06:36:56;;;;;;;;;;;21.30;39.00;;;;;;462540;257;2152;-43
2023/01/03 06:38:57;;;;;;;;;;;21.30;39.10;;;;;;462586;257;1735;-43
2023/01/03 06:40:58;;;;;;;;;;;21.20;39.20;;;;;;462497;257;2219;-44
2023/01/03 06:43:00;;;;;;;;;;;21.20;39.20;;;;;;462688;257;1934;-43
2023/01/03 06:54:19;;;;;;;;;;;21.20;39.30;;;;;;462689;257;2281;-43
2023/01/03 06:56:21;;;;;;;;;;;21.20;39.30;;;;;;462527;257;1953;-43
2023/01/03 06:58:22;;;;;;;;;;;21.20;39.30;;;;;;462682;257;2127;-44
2023/01/03 07:00:23;;;;;;;;;;;21.20;39.20;;;;;;462732;257;2207;-43
2023/01/03 07:02:24;;;;;;;;;;;21.30;39.10;;;;;;462623;257;1748;-43
2023/01/03 07:04:26;;;;;;;;;;;21.30;39.00;;;;;;462680;257;1906;-43
2023/01/03 07:06:27;;;;;;;;;;;21.30;39.10;;;;;;462430;257;1773;-43
2023/01/03 07:08:28;;;;;;;;;;;21.30;39.00;;;;;;462614;257;1714;-43
2023/01/03 07:10:30;;;;;;;;;;;21.30;38.90;;;;;;462689;257;1726;-44
2023/01/03 07:14:50;;;;;;;;;;;21.30;38.90;;;;;;462723;257;2083;-43
2023/01/03 07:16:52;;;;;;;;;;;21.40;38.90;;;;;;462549;257;1575;-44
2023/01/03 07:18:53;;;;;;;;;;;21.30;38.90;;;;;;462888;257;1960;-44
2023/01/03 07:20:54;;;;;;;;;;;21.30;38.90;;;;;;462705;257;2210;-44
2023/01/03 07:22:56;;;;;;;;;;;21.30;38.90;;;;;;462648;257;1773;-44
2023/01/03 07:24:57;;;;;;;;;;;21.30;38.90;;;;;;462775;257;1723;-44
2023/01/03 07:26:58;;;;;;;;;;;21.30;38.90;;;;;;462517;257;1741;-43
2023/01/03 07:29:00;;;;;;;;;;;21.40;38.90;;;;;;462640;257;1773;-43
2023/01/03 07:31:01;;;;;;;;;;;21.40;38.90;;;;;;462531;257;1767;-43
2023/01/03 07:33:02;;;;;;;;;;;21.40;38.80;;;;;;462510;257;1689;-43
2023/01/03 07:35:04;;;;;;;;;;;21.40;38.90;;;;;;462581;257;1946;-43
2023/01/03 07:37:05;;;;;;;;;;;21.30;38.90;;;;;;462290;257;1663;-43
2023/01/03 07:39:06;;;;;;;;;;;21.40;38.90;;;;;;462425;257;1664;-44
2023/01/03 07:41:08;;;;;;;;;;;21.40;39.10;;;;;;462387;257;2172;-43
2023/01/03 07:45:28;;;;;;;;;;;21.60;38.80;;;;;;462467;257;1713;-43
2023/01/03 07:47:29;;;;;;;;;;;21.50;38.70;;;;;;462414;257;1683;-44
2023/01/03 07:49:31;;;;;;;;;;;21.50;38.70;;;;;;462482;257;1697;-43
2023/01/03 07:51:32;;;;;;;;;;;21.60;38.80;;;;;;462582;257;1748;-44
2023/01/03 07:53:33;;;;;;;;;;;21.60;38.70;;;;;;462664;257;2065;-44
2023/01/03 07:55:35;;;;;;;;;;;21.60;38.80;;;;;;462666;257;1695;-43
2023/01/03 07:57:37;;;;;;;;;;;21.60;38.70;;;;;;462714;257;1921;-44
2023/01/03 07:59:37;;;;;;;;;;;21.60;38.80;;;;;;462758;257;2188;-44
2023/01/03 08:01:39;;;;;;;;;;;21.60;38.70;;;;;;462739;257;2207;-44
2023/01/03 08:03:40;;;;;;;;;;;21.60;38.80;;;;;;462786;257;1936;-44
2023/01/03 08:05:41;;;;;;;;;;;21.60;38.70;;;;;;462974;257;1754;-44
2023/01/03 08:07:43;;;;;;;;;;;21.50;38.80;;;;;;462615;257;1619;-44
2023/01/03 08:14:22;;;;;;;;;;;21.50;39.00;;;;;;462643;257;2033;-43
2023/01/03 08:16:24;;;;;;;;;;;21.50;39.00;;;;;;462662;257;1706;-43
2023/01/03 08:18:25;;;;;;;;;;;21.40;39.00;;;;;;462593;257;1781;-44
2023/01/03 08:20:26;;;;;;;;;;;21.40;39.20;;;;;;462436;257;2227;-44
2023/01/03 08:22:28;;;;;;;;;;;21.40;39.20;;;;;;462471;257;1655;-43
2023/01/03 08:24:30;;;;;;;;;;;21.40;39.30;;;;;;462482;257;1703;-44
2023/01/03 08:26:31;;;;;;;;;;;21.30;39.20;;;;;;462476;257;1745;-43
2023/01/03 08:28:32;;;;;;;;;;;21.30;39.40;;;;;;462519;257;2112;-44
2023/01/03 08:30:34;;;;;;;;;;;21.30;39.40;;;;;;462491;257;1994;-43
2023/01/03 08:32:36;;;;;;;;;;;21.30;39.30;;;;;;462512;257;1709;-43
2023/01/03 08:34:36;;;;;;;;;;;21.30;39.50;;;;;;462421;257;1923;-44
2023/01/03 08:36:37;;;;;;;;;;;21.30;39.50;;;;;;462453;257;1686;-44
2023/01/03 08:38:39;;;;;;;;;;;21.30;39.50;;;;;;462525;257;2008;-44
2023/01/03 08:40:40;;;;;;;;;;;21.30;39.50;;;;;;462436;257;2207;-44
2023/01/03 08:42:41;;;;;;;;;;;21.30;39.50;;;;;;462696;257;1774;-43
2023/01/03 08:44:43;;;;;;;;;;;21.30;39.40;;;;;;462539;257;1765;-43
2023/01/03 08:46:44;;;;;;;;;;;21.30;39.40;;;;;;462288;257;1750;-43
2023/01/03 08:48:45;;;;;;;;;;;21.30;39.40;;;;;;462512;257;1751;-43
2023/01/03 08:50:47;;;;;;;;;;;21.30;39.40;;;;;;462448;257;1632;-43
2023/01/03 08:52:48;;;;;;;;;;;21.30;39.50;;;;;;462623;257;2002;-43
2023/01/03 08:54:49;;;;;;;;;;;21.40;39.40;;;;;;462489;257;2129;-44
2023/01/03 08:56:51;;;;;;;;;;;21.40;39.30;;;;;;462443;257;1691;-43
2023/01/03 08:58:56;;;;;;;;;;;21.40;39.30;;;;;;462783;257;1898;-44
2023/01/03 09:00:53;;;;;;;;;;;21.50;39.20;;;;;;462422;257;2275;-43
2023/01/03 09:02:55;;;;;;;;;;;21.60;39.10;;;;;;462739;257;1745;-43
2023/01/03 09:04:56;;;;;;;;;;;21.50;39.10;;;;;;462616;257;1752;-43
2023/01/03 09:06:57;;;;;;;;;;;21.60;39.10;;;;;;462554;257;1684;-43
2023/01/03 09:08:59;;;;;;;;;;;21.60;39.10;;;;;;462778;257;1753;-43
2023/01/03 09:11:00;;;;;;;;;;;21.60;39.10;;;;;;462839;257;1739;-43
2023/01/03 09:13:01;;;;;;;;;;;21.60;39.20;;;;;;462746;257;2074;-43
2023/01/03 09:15:03;;;;;;;;;;;21.60;39.20;;;;;;462711;257;1665;-43
2023/01/03 09:17:04;;;;;;;;;;;21.60;39.20;;;;;;462683;257;1761;-44
2023/01/03 09:19:05;;;;;;;;;;;21.60;39.10;;;;;;462738;257;1761;-43
2023/01/03 09:21:07;;;;;;;;;;;21.60;39.20;;;;;;462699;257;2210;-43
2023/01/03 09:23:08;;;;;;;;;;;21.60;39.10;;;;;;462738;257;1995;-44
2023/01/03 09:25:10;;;;;;;;;;;21.60;39.20;;;;;;462697;257;2601;-43
2023/01/03 09:27:11;;;;;;;;;;;21.60;39.20;;;;;;462585;257;2015;-43
2023/01/03 09:29:12;;;;;;;;;;;21.60;39.20;;;;;;462644;257;1760;-43
2023/01/03 09:31:14;;;;;;;;;;;21.60;39.20;;;;;;462455;257;2051;-43
2023/01/03 09:33:15;;;;;;;;;;;21.60;39.20;;;;;;462529;257;1921;-43
2023/01/03 09:35:16;;;;;;;;;;;21.60;39.20;;;;;;462460;257;1773;-44
2023/01/03 09:37:17;;;;;;;;;;;21.60;39.20;;;;;;462398;257;2247;-44
2023/01/03 09:39:19;;;;;;;;;;;21.60;39.20;;;;;;462414;257;1702;-43
2023/01/03 09:41:20;;;;;;;;;;;21.60;39.30;;;;;;460647;257;2243;-44
2023/01/03 09:43:21;;;;;;;;;;;21.60;39.30;;;;;;462372;257;1734;-43
2023/01/03 09:45:23;;;;;;;;;;;21.60;39.30;;;;;;462527;257;1881;-43
2023/01/03 09:47:24;;;;;;;;;;;21.60;39.20;;;;;;462371;257;1936;-44
2023/01/03 09:49:25;;;;;;;;;;;21.60;39.20;;;;;;462542;257;2085;-43
2023/01/03 10:05:24;;;;;;;;;;;21.70;39.20;;;;;;462582;257;1706;-43
2023/01/03 10:07:26;;;;;;;;;;;21.70;39.10;;;;;;462507;257;2045;-44
2023/01/03 10:09:26;;;;;;;;;;;21.70;39.10;;;;;;462644;257;2318;-43
2023/01/03 10:11:28;;;;;;;;;;;21.80;39.10;;;;;;462516;257;1770;-43
2023/01/03 10:13:29;;;;;;;;;;;21.80;39.10;;;;;;462742;257;1694;-44
2023/01/03 10:15:30;;;;;;;;;;;21.80;39.10;;;;;;462579;257;1751;-43
2023/01/03 10:17:32;;;;;;;;;;;21.80;39.10;;;;;;462571;257;1929;-43
2023/01/03 10:19:33;;;;;;;;;;;21.80;39.00;;;;;;462641;257;1918;-43
2023/01/03 10:21:34;;;;;;;;;;;21.90;39.00;;;;;;462612;257;2163;-43
2023/01/03 10:23:36;;;;;;;;;;;21.90;38.90;;;;;;462620;257;1702;-43
2023/01/03 10:25:37;;;;;;;;;;;21.90;38.90;;;;;;462714;257;2142;-43
2023/01/03 10:27:38;;;;;;;;;;;21.90;38.90;;;;;;462613;257;2085;-44
2023/01/03 10:29:40;;;;;;;;;;;21.90;38.90;;;;;;462698;257;2181;-44
2023/01/03 10:31:41;;;;;;;;;;;22.00;38.90;;;;;;462690;257;2026;-43
2023/01/03 10:33:44;;;;;;;;;;;22.00;38.90;;;;;;462721;257;1932;-43
2023/01/03 10:35:44;;;;;;;;;;;21.90;38.90;;;;;;462551;257;1874;-43
2023/01/03 10:37:45;;;;;;;;;;;22.00;38.90;;;;;;462636;257;1904;-43
2023/01/03 10:39:46;;;;;;;;;;;22.00;38.90;;;;;;462821;257;1817;-43
2023/01/03 10:41:48;;;;;;;;;;;22.00;38.80;;;;;;462960;257;2219;-44
2023/01/03 10:43:49;;;;;;;;;;;22.00;38.80;;;;;;462781;257;1709;-43
2023/01/03 10:45:51;;;;;;;;;;;22.00;38.70;;;;;;462940;257;1701;-43
2023/01/03 10:47:52;;;;;;;;;;;22.00;38.60;;;;;;462695;257;1849;-43
2023/01/03 10:49:53;;;;;;;;;;;22.10;38.60;;;;;;462742;257;1924;-43
2023/01/03 10:51:55;;;;;;;;;;;22.10;38.60;;;;;;462689;257;1625;-44
2023/01/03 10:53:56;;;;;;;;;;;22.20;38.50;;;;;;462660;257;1636;-43
2023/01/03 10:55:57;;;;;;;;;;;22.20;38.40;;;;;;462680;257;1664;-43
2023/01/03 10:57:59;;;;;;;;;;;22.30;38.30;;;;;;462611;257;1728;-43
2023/01/03 11:00:00;;;;;;;;;;;22.40;38.30;;;;;;462564;257;1583;-43
2023/01/03 11:02:01;;;;;;;;;;;22.40;38.10;;;;;;462509;257;2211;-44
2023/01/03 11:04:03;;;;;;;;;;;22.40;38.10;;;;;;462553;257;1705;-44
2023/01/03 11:06:04;;;;;;;;;;;22.40;38.10;;;;;;462585;257;1708;-43
2023/01/03 11:08:05;;;;;;;;;;;22.40;38.20;;;;;;462521;257;1637;-43
2023/01/03 11:10:07;;;;;;;;;;;22.40;38.20;;;;;;462487;257;1916;-43
2023/01/03 11:12:08;;;;;;;;;;;22.40;38.30;;;;;;462489;257;2169;-43
2023/01/03 11:14:09;;;;;;;;;;;22.40;38.30;;;;;;462554;257;2037;-44
2023/01/03 11:16:11;;;;;;;;;;;22.40;38.40;;;;;;462564;257;2236;-43
2023/01/03 11:18:12;;;;;;;;;;;22.30;38.40;;;;;;462586;257;1745;-43
2023/01/03 11:20:13;;;;;;;;;;;22.30;38.50;;;;;;462672;257;2194;-44
2023/01/03 11:22:15;;;;;;;;;;;22.40;38.50;;;;;;462522;257;2219;-44
2023/01/03 11:24:17;;;;;;;;;;;22.30;38.40;;;;;;462584;257;1829;-43
2023/01/03 11:26:17;;;;;;;;;;;22.30;38.50;;;;;;462538;257;2028;-44
2023/01/03 11:28:19;;;;;;;;;;;22.30;38.50;;;;;;462633;257;1746;-44
2023/01/03 11:30:20;;;;;;;;;;;22.30;38.50;;;;;;462677;257;1753;-43
2023/01/03 11:32:21;;;;;;;;;;;22.30;38.60;;;;;;462511;257;1685;-43
2023/01/03 11:34:23;;;;;;;;;;;22.30;38.70;;;;;;462615;257;1803;-44
2023/01/03 11:36:24;;;;;;;;;;;22.30;38.60;;;;;;462478;257;2029;-43
2023/01/03 11:38:25;;;;;;;;;;;22.20;38.70;;;;;;462506;257;2553;-43
2023/01/03 11:40:27;;;;;;;;;;;22.20;38.80;;;;;;462598;257;1948;-43
2023/01/03 11:42:28;;;;;;;;;;;22.20;38.80;;;;;;462554;257;2215;-44
2023/01/03 11:44:30;;;;;;;;;;;22.20;38.80;;;;;;462512;257;1923;-43
2023/01/03 11:46:31;;;;;;;;;;;22.20;38.80;;;;;;462552;257;1702;-43
2023/01/03 11:48:32;;;;;;;;;;;22.20;38.80;;;;;;462511;257;2143;-44
2023/01/03 11:50:34;;;;;;;;;;;22.20;38.80;;;;;;462489;257;1685;-43
2023/01/03 11:52:35;;;;;;;;;;;22.20;38.80;;;;;;462690;257;1779;-43
2023/01/03 11:54:36;;;;;;;;;;;22.20;38.80;;;;;;462520;257;1702;-43
2023/01/03 11:56:38;;;;;;;;;;;22.20;38.80;;;;;;462409;257;2118;-44
2023/01/03 11:58:39;;;;;;;;;;;22.20;38.70;;;;;;462453;257;1778;-43
2023/01/03 12:00:40;;;;;;;;;;;22.20;38.80;;;;;;462540;257;1736;-44
2023/01/03 12:02:42;;;;;;;;;;;22.20;38.70;;;;;;462434;257;2362;-43
2023/01/03 12:04:43;;;;;;;;;;;22.20;38.70;;;;;;462457;257;1942;-43
2023/01/03 12:06:44;;;;;;;;;;;22.20;38.80;;;;;;462470;257;1756;-43
2023/01/03 12:08:46;;;;;;;;;;;22.20;38.90;;;;;;462503;257;1790;-44
2023/01/03 12:10:47;;;;;;;;;;;22.20;38.80;;;;;;462543;257;1878;-43
2023/01/03 12:12:48;;;;;;;;;;;22.20;38.90;;;;;;462439;257;1767;-44
2023/01/03 12:14:50;;;;;;;;;;;22.20;38.90;;;;;;462413;257;2293;-43
2023/01/03 12:16:51;;;;;;;;;;;22.20;38.90;;;;;;462352;257;1991;-43
2023/01/03 12:18:52;;;;;;;;;;;22.20;38.90;;;;;;462397;257;1826;-43
2023/01/03 12:20:53;;;;;;;;;;;22.20;39.00;;;;;;462249;257;1787;-44
2023/01/03 12:22:55;;;;;;;;;;;22.20;38.90;;;;;;462356;257;2183;-43
2023/01/03 12:24:56;;;;;;;;;;;22.20;39.00;;;;;;462418;257;1852;-44
2023/01/03 12:26:58;;;;;;;;;;;22.20;38.90;;;;;;462295;257;1795;-43
2023/01/03 12:28:59;;;;;;;;;;;22.20;39.00;;;;;;462599;257;2205;-43
2023/01/03 12:31:00;;;;;;;;;;;22.20;39.00;;;;;;462388;257;1740;-43
2023/01/03 12:33:01;;;;;;;;;;;22.10;38.90;;;;;;462395;257;1905;-44
2023/01/03 12:35:03;;;;;;;;;;;22.20;39.00;;;;;;462461;257;1786;-43
2023/01/03 12:37:04;;;;;;;;;;;22.10;39.00;;;;;;462370;257;1588;-43
2023/01/03 12:39:05;;;;;;;;;;;22.20;39.00;;;;;;462454;257;2085;-44
2023/01/03 12:41:07;;;;;;;;;;;22.10;39.00;;;;;;462625;257;2566;-44
2023/01/03 12:43:08;;;;;;;;;;;22.10;39.00;;;;;;462472;257;2203;-43
2023/01/03 12:45:10;;;;;;;;;;;22.20;39.00;;;;;;462585;257;1804;-43
2023/01/03 12:47:11;;;;;;;;;;;22.20;39.00;;;;;;462384;257;1784;-43
2023/01/03 12:49:12;;;;;;;;;;;22.10;38.90;;;;;;462390;257;1763;-43
2023/01/03 12:51:14;;;;;;;;;;;22.10;39.00;;;;;;462392;257;1748;-43
2023/01/03 12:53:15;;;;;;;;;;;22.10;39.00;;;;;;462422;257;1842;-44
2023/01/03 12:55:16;;;;;;;;;;;22.10;39.00;;;;;;462399;257;2758;-43
2023/01/03 12:57:18;;;;;;;;;;;22.10;39.00;;;;;;462447;257;1595;-43
2023/01/03 12:59:19;;;;;;;;;;;22.10;39.00;;;;;;462436;257;1768;-43